createdAt,value
2023-02-26T00:01:43.315Z,17.10
2023-02-26T00:04:10.892Z,17.85
2023-02-26T00:06:53.227Z,11.57
2023-02-26T00:09:22.769Z,11.13
2023-02-26T00:11:50.672Z,15.52
2023-02-26T00:14:18.022Z,14.50
2023-02-26T00:16:51.592Z,10.07
2023-02-26T00:19:20.460Z,12.98
2023-02-26T00:21:48.153Z,11.52
2023-02-26T00:24:17.404Z,10.70
2023-02-26T00:26:44.929Z,9.43
2023-02-26T00:29:12.498Z,12.20
2023-02-26T00:31:40.963Z,11.88
2023-02-26T00:34:13.290Z,15.68
2023-02-26T00:36:46.834Z,27.52
2023-02-26T00:39:42.860Z,35.53
2023-02-26T00:42:10.173Z,17.00
2023-02-26T00:44:37.684Z,15.38
2023-02-26T00:47:30.776Z,18.08
2023-02-26T00:50:14.299Z,12.35
2023-02-26T00:53:00.395Z,11.70
2023-02-26T00:55:29.442Z,16.48
2023-02-26T00:57:58.824Z,19.80
2023-02-26T01:00:27.591Z,14.50
2023-02-26T01:02:56.022Z,18.30
2023-02-26T01:05:26.259Z,12.05
2023-02-26T01:07:59.853Z,9.70
2023-02-26T01:10:27.968Z,10.48
2023-02-26T01:12:57.613Z,11.85
2023-02-26T01:15:25.700Z,10.82
2023-02-26T01:18:02.718Z,11.30
2023-02-26T01:20:38.853Z,8.88
2023-02-26T01:23:16.400Z,10.57
2023-02-26T01:25:50.554Z,31.48
2023-02-26T01:28:18.384Z,14.05
2023-02-26T01:30:46.465Z,10.73
2023-02-26T01:33:22.977Z,16.17
2023-02-26T01:35:54.700Z,11.10
2023-02-26T01:39:08.805Z,12.88
2023-02-26T01:41:51.312Z,10.20
2023-02-26T01:44:48.910Z,13.25
2023-02-26T01:47:41.765Z,11.07
2023-02-26T01:50:14.467Z,14.88
2023-02-26T01:52:51.122Z,11.60
2023-02-26T01:55:27.593Z,13.25
2023-02-26T01:57:59.074Z,11.45
2023-02-26T02:00:33.203Z,13.40
2023-02-26T02:03:02.442Z,13.68
2023-02-26T02:05:42.161Z,14.75
2023-02-26T02:08:13.485Z,14.98
2023-02-26T02:10:46.986Z,10.52
2023-02-26T02:13:16.811Z,10.27
2023-02-26T02:16:06.305Z,10.77
2023-02-26T02:18:52.549Z,11.35
2023-02-26T02:21:42.257Z,12.55
2023-02-26T02:24:14.840Z,8.90
2023-02-26T02:27:00.325Z,10.25
2023-02-26T02:29:28.573Z,11.75
2023-02-26T02:31:59.552Z,10.98
2023-02-26T02:34:32.790Z,12.25
2023-02-26T02:37:28.330Z,10.27
2023-02-26T02:40:08.097Z,10.73
2023-02-26T02:43:12.777Z,10.38
2023-02-26T02:46:05.221Z,10.02
2023-02-26T02:48:32.302Z,11.23
2023-02-26T02:51:04.351Z,9.00
2023-02-26T02:53:44.041Z,9.35
2023-02-26T02:56:15.243Z,10.48
2023-02-26T02:58:56.460Z,11.10
2023-02-26T03:01:28.033Z,10.07
2023-02-26T03:04:07.736Z,12.05
2023-02-26T03:06:35.731Z,9.60
2023-02-26T03:09:05.391Z,10.15
2023-02-26T03:11:39.741Z,9.90
2023-02-26T03:14:11.031Z,9.00
2023-02-26T03:17:12.568Z,17.13
2023-02-26T03:20:13.909Z,9.43
2023-02-26T03:23:00.228Z,10.20
2023-02-26T03:25:35.998Z,11.18
2023-02-26T03:28:13.715Z,10.95
2023-02-26T03:30:51.891Z,12.23
2023-02-26T03:33:53.478Z,9.88
2023-02-26T03:36:28.505Z,9.80
2023-02-26T03:39:18.686Z,8.52
2023-02-26T03:42:02.656Z,9.10
2023-02-26T03:44:38.531Z,8.10
2023-02-26T03:47:13.087Z,7.78
2023-02-26T03:49:50.952Z,8.82
2023-02-26T03:52:33.261Z,8.68
2023-02-26T03:55:10.904Z,9.25
2023-02-26T03:57:38.582Z,7.38
2023-02-26T04:00:10.953Z,8.77
2023-02-26T04:02:45.899Z,7.70
2023-02-26T04:05:19.924Z,8.02
2023-02-26T04:07:48.710Z,8.15
2023-02-26T04:10:19.875Z,9.27
2023-02-26T04:12:46.910Z,8.50
2023-02-26T04:15:14.910Z,11.32
2023-02-26T04:17:43.386Z,8.35
2023-02-26T04:20:12.305Z,10.23
2023-02-26T04:22:39.687Z,8.88
2023-02-26T04:25:07.514Z,7.65
2023-02-26T04:27:34.806Z,10.52
2023-02-26T04:30:02.209Z,10.25
2023-02-26T04:32:31.712Z,10.48
2023-02-26T04:35:00.196Z,12.18
2023-02-26T04:37:27.664Z,10.82
2023-02-26T04:39:55.142Z,73.97
2023-02-26T04:42:22.808Z,78.50
2023-02-26T04:45:02.617Z,24.15
2023-02-26T04:47:29.927Z,54.75
2023-02-26T04:49:57.186Z,21.98
2023-02-26T04:52:24.337Z,13.88
2023-02-26T04:54:51.610Z,17.98
2023-02-26T04:57:19.098Z,18.55
2023-02-26T04:59:47.865Z,13.93
2023-02-26T05:02:15.706Z,16.73
2023-02-26T05:04:43.990Z,12.20
2023-02-26T05:07:11.934Z,19.33
2023-02-26T05:09:39.496Z,15.30
2023-02-26T05:12:06.880Z,24.27
2023-02-26T05:14:34.366Z,22.63
2023-02-26T05:17:01.756Z,19.35
2023-02-26T05:19:29.344Z,14.38
2023-02-26T05:21:57.741Z,12.75
2023-02-26T05:24:25.387Z,12.82
2023-02-26T05:26:52.712Z,10.20
2023-02-26T05:29:20.220Z,10.75
2023-02-26T05:31:47.759Z,12.05
2023-02-26T05:34:15.638Z,10.02
2023-02-26T05:36:43.090Z,9.00
2023-02-26T05:39:10.822Z,11.93
2023-02-26T05:41:38.044Z,10.15
2023-02-26T05:44:05.629Z,10.85
2023-02-26T05:46:32.991Z,11.32
2023-02-26T05:49:00.447Z,9.60
2023-02-26T05:51:28.933Z,10.88
2023-02-26T05:53:56.356Z,10.55
2023-02-26T05:56:24.265Z,11.50
2023-02-26T05:58:58.080Z,11.95
2023-02-26T06:01:26.352Z,9.73
2023-02-26T06:03:53.600Z,9.75
2023-02-26T06:06:23.065Z,7.32
2023-02-26T06:08:51.773Z,9.40
2023-02-26T06:11:19.353Z,9.23
2023-02-26T06:13:46.773Z,10.02
2023-02-26T06:16:14.281Z,8.10
2023-02-26T06:18:47.920Z,7.65
2023-02-26T06:21:15.389Z,7.05
2023-02-26T06:23:43.984Z,8.88
2023-02-26T06:26:13.200Z,9.00
2023-02-26T06:28:42.486Z,8.32
2023-02-26T06:31:11.096Z,7.45
2023-02-26T06:33:40.320Z,9.82
2023-02-26T06:36:08.772Z,11.13
2023-02-26T06:38:36.297Z,9.52
2023-02-26T06:41:09.375Z,7.80
2023-02-26T06:43:36.929Z,8.68
2023-02-26T06:46:04.737Z,6.88
2023-02-26T06:48:33.433Z,7.15
2023-02-26T06:51:00.910Z,6.88
2023-02-26T06:53:28.363Z,9.65
2023-02-26T06:55:55.855Z,7.38
2023-02-26T06:58:24.691Z,8.35
2023-02-26T07:00:51.876Z,9.55
2023-02-26T07:03:19.798Z,5.90
2023-02-26T07:05:47.566Z,7.03
2023-02-26T07:08:15.266Z,6.68
2023-02-26T07:10:44.092Z,7.28
2023-02-26T07:13:13.583Z,9.25
2023-02-26T07:15:41.382Z,6.60
2023-02-26T07:18:15.760Z,7.28
2023-02-26T07:20:43.868Z,8.13
2023-02-26T07:23:12.725Z,9.02
2023-02-26T07:25:42.430Z,12.77
2023-02-26T07:28:10.796Z,9.02
2023-02-26T07:30:38.356Z,14.60
2023-02-26T07:33:05.773Z,9.15
2023-02-26T07:35:33.200Z,9.20
2023-02-26T07:38:00.628Z,13.27
2023-02-26T07:40:29.169Z,9.95
2023-02-26T07:42:56.652Z,9.35
2023-02-26T07:45:25.141Z,15.65
2023-02-26T07:47:54.521Z,7.93
2023-02-26T07:50:25.184Z,13.65
2023-02-26T07:52:54.705Z,12.50
2023-02-26T07:55:22.769Z,9.80
2023-02-26T07:57:50.435Z,6.93
2023-02-26T08:00:18.590Z,7.90
2023-02-26T08:02:46.255Z,11.05
2023-02-26T08:05:13.433Z,17.30
2023-02-26T08:07:44.123Z,28.50
2023-02-26T08:10:13.714Z,14.95
2023-02-26T08:12:41.062Z,13.18
2023-02-26T08:15:14.679Z,12.45
2023-02-26T08:17:43.185Z,22.58
2023-02-26T08:20:12.208Z,7.68
2023-02-26T08:22:39.833Z,8.15
2023-02-26T08:25:09.445Z,8.15
2023-02-26T08:27:36.895Z,8.13
2023-02-26T08:30:05.809Z,16.63
2023-02-26T08:32:33.694Z,6.72
2023-02-26T08:35:01.180Z,12.00
2023-02-26T08:37:29.701Z,8.85
2023-02-26T08:39:57.396Z,7.10
2023-02-26T08:42:24.716Z,8.77
2023-02-26T08:44:52.336Z,12.38
2023-02-26T08:47:28.547Z,6.15
2023-02-26T08:49:56.718Z,6.32
2023-02-26T08:52:24.226Z,8.25
2023-02-26T08:54:51.610Z,9.43
2023-02-26T08:57:19.030Z,8.95
2023-02-26T08:59:46.535Z,10.45
2023-02-26T09:02:15.353Z,8.45
2023-02-26T09:04:42.971Z,9.02
2023-02-26T09:07:10.007Z,7.82
2023-02-26T09:09:37.325Z,6.47
2023-02-26T09:12:04.957Z,7.65
2023-02-26T09:14:32.240Z,8.63
2023-02-26T09:16:59.411Z,6.22
2023-02-26T09:19:26.612Z,11.07
2023-02-26T09:21:54.062Z,5.75
2023-02-26T09:24:21.070Z,9.10
2023-02-26T09:26:48.507Z,6.03
2023-02-26T09:29:15.871Z,7.50
2023-02-26T09:31:43.179Z,6.68
2023-02-26T09:34:11.566Z,6.03
2023-02-26T09:36:40.810Z,7.25
2023-02-26T09:39:09.308Z,7.43
2023-02-26T09:41:49.088Z,7.22
2023-02-26T09:44:45.378Z,8.15
2023-02-26T09:47:17.095Z,5.60
2023-02-26T09:50:10.816Z,8.07
2023-02-26T09:52:44.946Z,7.25
2023-02-26T09:55:37.036Z,6.95
2023-02-26T09:58:10.061Z,11.27
2023-02-26T10:00:44.920Z,6.22
2023-02-26T10:03:51.136Z,6.47
2023-02-26T10:06:35.908Z,6.07
2023-02-26T10:09:26.293Z,6.05
2023-02-26T10:12:02.507Z,7.30
2023-02-26T10:14:48.237Z,6.82
2023-02-26T10:17:18.256Z,6.55
2023-02-26T10:19:51.932Z,8.13
2023-02-26T10:22:28.015Z,4.85
2023-02-26T10:25:03.746Z,5.97
2023-02-26T10:27:57.242Z,4.78
2023-02-26T10:30:38.285Z,5.88
2023-02-26T10:33:22.763Z,5.18
2023-02-26T10:35:57.293Z,7.07
2023-02-26T10:38:33.701Z,4.82
2023-02-26T10:41:16.254Z,4.35
2023-02-26T10:43:52.505Z,5.65
2023-02-26T10:46:30.634Z,4.72
2023-02-26T10:49:18.656Z,4.82
2023-02-26T10:51:47.377Z,7.32
2023-02-26T10:54:30.169Z,4.32
2023-02-26T10:56:57.688Z,5.67
2023-02-26T10:59:26.054Z,4.32
2023-02-26T11:01:54.665Z,3.45
2023-02-26T11:04:24.374Z,4.20
2023-02-26T11:07:00.694Z,7.78
2023-02-26T11:09:46.377Z,4.95
2023-02-26T11:12:19.339Z,4.78
2023-02-26T11:14:49.281Z,6.78
2023-02-26T11:17:31.659Z,5.72
2023-02-26T11:20:25.471Z,5.35
2023-02-26T11:22:58.411Z,6.40
2023-02-26T11:25:31.116Z,6.53
2023-02-26T11:28:05.749Z,8.68
2023-02-26T11:30:38.052Z,11.93
2023-02-26T11:33:17.114Z,8.80
2023-02-26T11:35:45.878Z,6.15
2023-02-26T11:38:25.971Z,7.10
2023-02-26T11:40:57.287Z,7.95
2023-02-26T11:43:29.130Z,7.68
2023-02-26T11:46:00.694Z,5.93
2023-02-26T11:48:51.843Z,6.35
2023-02-26T11:51:26.843Z,6.45
2023-02-26T11:53:57.374Z,5.18
2023-02-26T11:56:34.483Z,3.78
2023-02-26T11:59:28.071Z,5.38
2023-02-26T12:01:56.032Z,5.65
2023-02-26T12:04:27.487Z,6.60
2023-02-26T12:06:57.114Z,5.72
2023-02-26T12:09:27.130Z,6.78
2023-02-26T12:12:20.806Z,5.30
2023-02-26T12:15:08.952Z,42.72
2023-02-26T12:17:47.942Z,11.57
2023-02-26T12:20:27.737Z,4.80
2023-02-26T12:23:17.972Z,4.78
2023-02-26T12:26:09.780Z,4.38
2023-02-26T12:29:02.632Z,3.45
2023-02-26T12:31:51.318Z,4.53
2023-02-26T12:34:45.088Z,5.18
2023-02-26T12:37:22.386Z,5.72
2023-02-26T12:40:32.770Z,6.38
2023-02-26T12:43:11.140Z,6.20
2023-02-26T12:45:59.430Z,5.88
2023-02-26T12:48:36.398Z,7.43
2023-02-26T12:51:16.373Z,6.65
2023-02-26T12:54:18.720Z,6.78
2023-02-26T12:56:57.944Z,6.35
2023-02-26T12:59:36.167Z,4.55
2023-02-26T13:02:14.394Z,5.82
2023-02-26T13:05:17.121Z,6.75
2023-02-26T13:08:03.363Z,8.75
2023-02-26T13:11:30.989Z,5.65
2023-02-26T13:14:10.670Z,7.47
2023-02-26T13:16:59.883Z,7.00
2023-02-26T13:19:38.239Z,7.85
2023-02-26T13:22:41.132Z,9.20
2023-02-26T13:25:33.700Z,8.95
2023-02-26T13:28:06.185Z,12.65
2023-02-26T13:30:45.019Z,9.60
2023-02-26T13:33:21.810Z,11.48
2023-02-26T13:35:53.546Z,11.07
2023-02-26T13:38:27.515Z,11.00
2023-02-26T13:41:30.573Z,9.10
2023-02-26T13:44:23.942Z,10.10
2023-02-26T13:47:11.650Z,7.25
2023-02-26T13:49:59.660Z,8.80
2023-02-26T13:52:34.155Z,12.88
2023-02-26T13:55:04.933Z,11.43
2023-02-26T13:57:52.457Z,11.70
2023-02-26T14:00:48.528Z,9.30
2023-02-26T14:03:18.898Z,9.05
2023-02-26T14:05:49.707Z,8.35
2023-02-26T14:08:44.591Z,9.00
2023-02-26T14:11:18.618Z,7.40
2023-02-26T14:14:17.192Z,6.65
2023-02-26T14:16:50.112Z,8.07
2023-02-26T14:19:27.468Z,7.85
2023-02-26T14:22:09.948Z,7.18
2023-02-26T14:24:46.570Z,6.90
2023-02-26T14:27:15.462Z,7.80
2023-02-26T14:29:58.852Z,7.60
2023-02-26T14:32:36.544Z,9.52
2023-02-26T14:35:14.477Z,7.50
2023-02-26T14:37:44.309Z,11.98
2023-02-26T14:40:22.502Z,10.95
2023-02-26T14:43:07.757Z,7.95
2023-02-26T14:45:43.624Z,9.73
2023-02-26T14:48:17.791Z,8.77
2023-02-26T14:50:51.225Z,12.48
2023-02-26T14:53:40.904Z,10.13
2023-02-26T14:56:20.564Z,7.45
2023-02-26T14:59:14.986Z,9.40
2023-02-26T15:02:14.426Z,10.30
2023-02-26T15:05:12.021Z,9.60
2023-02-26T15:07:55.341Z,10.38
2023-02-26T15:10:32.567Z,10.05
2023-02-26T15:13:09.825Z,8.40
2023-02-26T15:15:58.918Z,11.38
2023-02-26T15:19:00.317Z,9.50
2023-02-26T15:22:00.138Z,8.02
2023-02-26T15:24:32.476Z,10.75
2023-02-26T15:27:06.786Z,9.25
2023-02-26T15:29:38.670Z,11.15
2023-02-26T15:32:16.998Z,14.02
2023-02-26T15:34:54.993Z,10.68
2023-02-26T15:37:30.907Z,15.27
2023-02-26T15:40:01.137Z,11.35
2023-02-26T15:42:34.424Z,12.25
2023-02-26T15:45:03.723Z,11.82
2023-02-26T15:47:32.667Z,10.93
2023-02-26T15:50:02.961Z,15.85
2023-02-26T15:52:31.903Z,12.80
2023-02-26T15:55:05.692Z,15.95
2023-02-26T15:57:33.612Z,21.45
2023-02-26T16:00:17.657Z,22.83
2023-02-26T16:02:46.436Z,16.90
2023-02-26T16:05:18.043Z,20.77
2023-02-26T16:07:47.769Z,18.42
2023-02-26T16:10:35.982Z,20.08
2023-02-26T16:13:09.004Z,20.08
2023-02-26T16:15:40.831Z,31.13
2023-02-26T16:18:16.133Z,36.63
2023-02-26T16:20:48.870Z,28.70
2023-02-26T16:23:22.697Z,27.33
2023-02-26T16:26:03.224Z,35.33
2023-02-26T16:28:46.301Z,43.95
2023-02-26T16:31:21.355Z,49.03
2023-02-26T16:34:03.234Z,44.47
2023-02-26T16:36:46.643Z,31.02
2023-02-26T16:39:28.530Z,28.02
2023-02-26T16:42:10.558Z,21.40
2023-02-26T16:44:47.649Z,22.02
2023-02-26T16:47:19.076Z,24.85
2023-02-26T16:49:48.578Z,27.73
2023-02-26T16:52:23.490Z,28.73
2023-02-26T16:55:00.093Z,30.90
2023-02-26T16:57:41.209Z,31.20
2023-02-26T17:00:31.443Z,33.42
2023-02-26T17:03:23.447Z,35.65
2023-02-26T17:06:03.512Z,52.97
2023-02-26T17:08:52.751Z,45.88
2023-02-26T17:11:49.499Z,36.58
2023-02-26T17:14:27.803Z,46.17
2023-02-26T17:16:55.648Z,26.75
2023-02-26T17:19:23.877Z,33.45
2023-02-26T17:21:56.735Z,28.52
2023-02-26T17:24:35.189Z,40.70
2023-02-26T17:27:06.177Z,30.58
2023-02-26T17:29:44.424Z,28.75
2023-02-26T17:32:27.326Z,45.38
2023-02-26T17:34:57.504Z,40.83
2023-02-26T17:37:31.281Z,34.95
2023-02-26T17:40:02.144Z,30.83
2023-02-26T17:42:31.858Z,37.03
2023-02-26T17:45:02.237Z,35.88
2023-02-26T17:47:31.539Z,36.75
2023-02-26T17:50:02.626Z,33.15
2023-02-26T17:52:32.254Z,32.88
2023-02-26T17:55:01.824Z,51.90
2023-02-26T17:57:31.755Z,59.58
2023-02-26T18:00:00.230Z,56.55
2023-02-26T18:02:29.720Z,68.57
2023-02-26T18:04:59.102Z,69.70
2023-02-26T18:07:28.619Z,47.28
2023-02-26T18:09:56.896Z,56.42
2023-02-26T18:12:26.034Z,53.50
2023-02-26T18:14:53.862Z,38.47
2023-02-26T18:17:32.278Z,33.03
2023-02-26T18:20:01.419Z,31.73
2023-02-26T18:22:31.678Z,31.88
2023-02-26T18:25:00.008Z,27.65
2023-02-26T18:27:30.616Z,27.38
2023-02-26T18:30:00.208Z,24.92
2023-02-26T18:32:31.238Z,28.92
2023-02-26T18:35:00.749Z,29.25
2023-02-26T18:37:29.693Z,25.42
2023-02-26T18:39:58.148Z,29.23
2023-02-26T18:42:31.314Z,28.52
2023-02-26T18:45:00.318Z,29.08
2023-02-26T18:47:30.120Z,24.50
2023-02-26T18:49:59.123Z,24.15
2023-02-26T18:52:28.581Z,22.85
2023-02-26T18:54:57.216Z,21.58
2023-02-26T18:57:31.625Z,18.00
2023-02-26T19:00:00.328Z,21.13
2023-02-26T19:02:29.519Z,45.88
2023-02-26T19:04:57.961Z,47.15
2023-02-26T19:07:28.618Z,102.18
2023-02-26T19:09:57.478Z,141.10
2023-02-26T19:12:27.357Z,110.07
2023-02-26T19:14:55.498Z,29.33
2023-02-26T19:17:25.514Z,38.60
2023-02-26T19:19:54.297Z,35.95
2023-02-26T19:22:22.655Z,33.67
2023-02-26T19:24:52.213Z,53.40
2023-02-26T19:27:21.620Z,31.50
2023-02-26T19:29:50.271Z,34.20
2023-02-26T19:32:19.248Z,28.42
2023-02-26T19:34:47.639Z,33.40
2023-02-26T19:37:15.859Z,27.23
2023-02-26T19:39:44.585Z,29.45
2023-02-26T19:42:15.365Z,28.17
2023-02-26T19:44:45.442Z,29.42
2023-02-26T19:47:14.039Z,28.98
2023-02-26T19:49:43.016Z,30.45
2023-02-26T19:52:11.488Z,42.72
2023-02-26T19:54:40.100Z,50.45
2023-02-26T19:57:08.117Z,69.35
2023-02-26T19:59:38.604Z,119.10
2023-02-26T20:02:08.200Z,101.03
2023-02-26T20:04:36.117Z,54.42
2023-02-26T20:07:04.647Z,39.13
2023-02-26T20:09:36.413Z,31.25
2023-02-26T20:12:11.859Z,28.77
2023-02-26T20:14:40.805Z,37.08
2023-02-26T20:17:13.989Z,31.52
2023-02-26T20:19:43.334Z,42.03
2023-02-26T20:22:12.544Z,34.67
2023-02-26T20:24:42.145Z,29.13
2023-02-26T20:27:10.397Z,25.05
2023-02-26T20:29:39.865Z,20.13
2023-02-26T20:32:10.521Z,22.15
2023-02-26T20:34:42.783Z,24.50
2023-02-26T20:37:11.011Z,22.42
2023-02-26T20:39:39.498Z,21.55
2023-02-26T20:42:08.982Z,17.95
2023-02-26T20:44:38.512Z,18.17
2023-02-26T20:47:08.023Z,23.05
2023-02-26T20:49:38.103Z,31.33
2023-02-26T20:52:08.549Z,48.38
2023-02-26T20:54:37.284Z,44.17
2023-02-26T20:57:06.047Z,80.25
2023-02-26T20:59:34.133Z,102.13
2023-02-26T21:02:02.661Z,64.30
2023-02-26T21:04:32.184Z,38.38
2023-02-26T21:07:13.571Z,43.53
2023-02-26T21:09:41.535Z,30.45
2023-02-26T21:12:10.398Z,19.27
2023-02-26T21:14:42.040Z,18.45
2023-02-26T21:17:10.914Z,15.77
2023-02-26T21:19:39.592Z,15.27
2023-02-26T21:22:07.724Z,14.15
2023-02-26T21:24:35.804Z,15.05
2023-02-26T21:27:04.951Z,16.90
2023-02-26T21:29:33.030Z,14.43
2023-02-26T21:32:03.886Z,15.20
2023-02-26T21:34:41.216Z,13.35
2023-02-26T21:37:11.751Z,15.43
2023-02-26T21:39:39.892Z,14.45
2023-02-26T21:42:11.761Z,16.67
2023-02-26T21:44:40.613Z,17.75
2023-02-26T21:47:08.623Z,17.60
2023-02-26T21:49:36.346Z,16.45
2023-02-26T21:52:06.055Z,17.95
2023-02-26T21:54:34.478Z,15.70
2023-02-26T21:57:02.152Z,14.93
2023-02-26T21:59:29.798Z,16.10
2023-02-26T22:01:56.990Z,16.10
2023-02-26T22:04:24.698Z,17.40
2023-02-26T22:06:54.224Z,16.25
2023-02-26T22:09:22.085Z,16.42
2023-02-26T22:11:49.733Z,16.67
2023-02-26T22:14:18.015Z,18.67
2023-02-26T22:16:45.602Z,21.00
2023-02-26T22:19:12.953Z,17.88
2023-02-26T22:21:46.451Z,17.02
2023-02-26T22:24:14.004Z,17.75
2023-02-26T22:26:44.814Z,19.25
2023-02-26T22:29:12.424Z,22.00
2023-02-26T22:31:40.065Z,17.23
2023-02-26T22:34:08.341Z,23.30
2023-02-26T22:36:37.913Z,26.60
2023-02-26T22:39:06.358Z,31.98
2023-02-26T22:41:35.129Z,45.38
2023-02-26T22:44:02.873Z,34.30
2023-02-26T22:46:32.629Z,20.55
2023-02-26T22:49:00.552Z,25.60
2023-02-26T22:51:30.081Z,41.63
2023-02-26T22:53:57.405Z,54.08
2023-02-26T22:56:25.199Z,63.63
2023-02-26T22:58:52.776Z,56.97
2023-02-26T23:01:20.857Z,42.55
2023-02-26T23:03:47.935Z,37.97
2023-02-26T23:06:16.228Z,33.65
2023-02-26T23:08:43.507Z,27.27
2023-02-26T23:11:10.984Z,25.70
2023-02-26T23:13:40.381Z,24.77
2023-02-26T23:16:10.673Z,24.42
2023-02-26T23:18:39.614Z,24.88
2023-02-26T23:21:08.397Z,23.88
2023-02-26T23:23:35.976Z,23.27
2023-02-26T23:26:03.720Z,21.27
2023-02-26T23:28:31.325Z,23.35
2023-02-26T23:30:58.950Z,19.20
2023-02-26T23:33:26.383Z,19.58
2023-02-26T23:35:54.195Z,23.05
2023-02-26T23:38:23.748Z,20.40
2023-02-26T23:40:51.255Z,24.20
2023-02-26T23:43:18.565Z,19.35
2023-02-26T23:45:46.084Z,20.73
2023-02-26T23:48:13.428Z,18.55
2023-02-26T23:50:40.984Z,19.15
2023-02-26T23:53:08.681Z,19.52
2023-02-26T23:55:36.810Z,18.52
2023-02-26T23:58:04.390Z,20.05
